sensor_id;sensor_type;location;lat;lon;timestamp;P1;durP1;ratioP1;P2;durP2;ratioP2
13329;SDS011;6734;48.638;8.896;2022-12-29T00:01:17;2.43;;;1.90;;
13329;SDS011;6734;48.638;8.896;2022-12-29T00:03:46;2.47;;;1.87;;
13329;SDS011;6734;48.638;8.896;2022-12-29T00:06:12;2.93;;;1.83;;
13329;SDS011;6734;48.638;8.896;2022-12-29T00:08:38;3.30;;;1.80;;
13329;SDS011;6734;48.638;8.896;2022-12-29T00:11:07;2.03;;;1.43;;
13329;SDS011;6734;48.638;8.896;2022-12-29T00:13:34;2.33;;;1.70;;
13329;SDS011;6734;48.638;8.896;2022-12-29T00:16:19;2.20;;;1.80;;
13329;SDS011;6734;48.638;8.896;2022-12-29T00:18:44;3.23;;;1.57;;
13329;SDS011;6734;48.638;8.896;2022-12-29T00:21:14;2.90;;;1.70;;
13329;SDS011;6734;48.638;8.896;2022-12-29T00:24:00;3.87;;;1.50;;
13329;SDS011;6734;48.638;8.896;2022-12-29T00:26:44;3.03;;;2.13;;
13329;SDS011;6734;48.638;8.896;2022-12-29T00:29:29;3.23;;;1.53;;
13329;SDS011;6734;48.638;8.896;2022-12-29T00:32:14;2.87;;;1.63;;
13329;SDS011;6734;48.638;8.896;2022-12-29T00:34:58;2.80;;;1.50;;
13329;SDS011;6734;48.638;8.896;2022-12-29T00:37:34;2.87;;;1.70;;
13329;SDS011;6734;48.638;8.896;2022-12-29T00:40:19;1.97;;;1.73;;
13329;SDS011;6734;48.638;8.896;2022-12-29T00:43:03;2.13;;;1.50;;
13329;SDS011;6734;48.638;8.896;2022-12-29T00:45:48;2.47;;;1.43;;
13329;SDS011;6734;48.638;8.896;2022-12-29T00:48:14;2.67;;;1.43;;
13329;SDS011;6734;48.638;8.896;2022-12-29T00:50:39;2.40;;;1.40;;
13329;SDS011;6734;48.638;8.896;2022-12-29T00:53:05;4.43;;;1.70;;
13329;SDS011;6734;48.638;8.896;2022-12-29T00:55:35;3.50;;;1.63;;
13329;SDS011;6734;48.638;8.896;2022-12-29T00:58:01;3.30;;;1.80;;
13329;SDS011;6734;48.638;8.896;2022-12-29T01:00:27;3.17;;;1.70;;
13329;SDS011;6734;48.638;8.896;2022-12-29T01:02:53;3.90;;;1.67;;
13329;SDS011;6734;48.638;8.896;2022-12-29T01:05:18;2.13;;;1.37;;
13329;SDS011;6734;48.638;8.896;2022-12-29T01:07:44;3.23;;;1.60;;
13329;SDS011;6734;48.638;8.896;2022-12-29T01:10:10;1.70;;;1.30;;
13329;SDS011;6734;48.638;8.896;2022-12-29T01:12:36;3.07;;;1.20;;
13329;SDS011;6734;48.638;8.896;2022-12-29T01:15:06;2.20;;;1.47;;
13329;SDS011;6734;48.638;8.896;2022-12-29T01:17:33;3.00;;;1.40;;
13329;SDS011;6734;48.638;8.896;2022-12-29T01:19:59;3.47;;;1.10;;
13329;SDS011;6734;48.638;8.896;2022-12-29T01:22:25;2.07;;;1.43;;
13329;SDS011;6734;48.638;8.896;2022-12-29T01:24:50;2.17;;;1.50;;
13329;SDS011;6734;48.638;8.896;2022-12-29T01:27:16;2.33;;;1.30;;
13329;SDS011;6734;48.638;8.896;2022-12-29T01:29:42;2.90;;;1.37;;
13329;SDS011;6734;48.638;8.896;2022-12-29T01:32:08;2.07;;;1.40;;
13329;SDS011;6734;48.638;8.896;2022-12-29T01:34:33;1.60;;;1.20;;
13329;SDS011;6734;48.638;8.896;2022-12-29T01:36:59;2.70;;;1.50;;
13329;SDS011;6734;48.638;8.896;2022-12-29T01:39:25;1.57;;;1.23;;
13329;SDS011;6734;48.638;8.896;2022-12-29T01:41:51;2.00;;;1.20;;
13329;SDS011;6734;48.638;8.896;2022-12-29T01:47:02;1.67;;;1.17;;
13329;SDS011;6734;48.638;8.896;2022-12-29T01:49:28;4.07;;;1.30;;
13329;SDS011;6734;48.638;8.896;2022-12-29T01:51:55;2.20;;;1.30;;
13329;SDS011;6734;48.638;8.896;2022-12-29T01:54:25;2.10;;;1.30;;
13329;SDS011;6734;48.638;8.896;2022-12-29T01:56:52;3.40;;;1.60;;
13329;SDS011;6734;48.638;8.896;2022-12-29T01:59:20;1.90;;;1.30;;
13329;SDS011;6734;48.638;8.896;2022-12-29T02:01:48;1.33;;;1.20;;
13329;SDS011;6734;48.638;8.896;2022-12-29T02:04:14;1.80;;;1.30;;
13329;SDS011;6734;48.638;8.896;2022-12-29T02:06:51;3.30;;;1.50;;
13329;SDS011;6734;48.638;8.896;2022-12-29T02:09:18;4.50;;;1.33;;
13329;SDS011;6734;48.638;8.896;2022-12-29T02:11:44;2.87;;;1.17;;
13329;SDS011;6734;48.638;8.896;2022-12-29T02:14:11;2.83;;;1.33;;
13329;SDS011;6734;48.638;8.896;2022-12-29T02:22:10;1.70;;;1.20;;
13329;SDS011;6734;48.638;8.896;2022-12-29T02:24:57;3.63;;;1.13;;
13329;SDS011;6734;48.638;8.896;2022-12-29T02:27:33;2.00;;;1.20;;
13329;SDS011;6734;48.638;8.896;2022-12-29T02:30:05;1.20;;;1.10;;
13329;SDS011;6734;48.638;8.896;2022-12-29T02:45:15;2.43;;;1.43;;
13329;SDS011;6734;48.638;8.896;2022-12-29T02:52:46;2.03;;;1.30;;
13329;SDS011;6734;48.638;8.896;2022-12-29T02:55:15;3.10;;;1.30;;
13329;SDS011;6734;48.638;8.896;2022-12-29T02:57:41;1.23;;;1.03;;
13329;SDS011;6734;48.638;8.896;2022-12-29T03:00:08;1.40;;;1.10;;
13329;SDS011;6734;48.638;8.896;2022-12-29T03:10:05;2.70;;;0.90;;
13329;SDS011;6734;48.638;8.896;2022-12-29T03:15:28;1.40;;;1.00;;
13329;SDS011;6734;48.638;8.896;2022-12-29T03:18:25;2.40;;;1.00;;
13329;SDS011;6734;48.638;8.896;2022-12-29T03:21:00;2.07;;;0.90;;
13329;SDS011;6734;48.638;8.896;2022-12-29T03:23:34;1.43;;;0.90;;
13329;SDS011;6734;48.638;8.896;2022-12-29T03:26:01;2.10;;;1.20;;
13329;SDS011;6734;48.638;8.896;2022-12-29T03:28:35;5.10;;;1.10;;
13329;SDS011;6734;48.638;8.896;2022-12-29T03:31:02;1.40;;;1.20;;
13329;SDS011;6734;48.638;8.896;2022-12-29T03:33:29;2.97;;;1.00;;
13329;SDS011;6734;48.638;8.896;2022-12-29T03:35:58;1.40;;;1.13;;
13329;SDS011;6734;48.638;8.896;2022-12-29T03:41:00;3.27;;;1.20;;
13329;SDS011;6734;48.638;8.896;2022-12-29T03:43:29;1.60;;;1.10;;
13329;SDS011;6734;48.638;8.896;2022-12-29T03:45:55;1.93;;;1.00;;
13329;SDS011;6734;48.638;8.896;2022-12-29T03:48:21;1.73;;;1.40;;
13329;SDS011;6734;48.638;8.896;2022-12-29T03:50:47;1.97;;;1.30;;
13329;SDS011;6734;48.638;8.896;2022-12-29T03:53:13;2.20;;;1.33;;
13329;SDS011;6734;48.638;8.896;2022-12-29T03:55:38;2.90;;;1.17;;
13329;SDS011;6734;48.638;8.896;2022-12-29T03:58:04;1.80;;;1.10;;
13329;SDS011;6734;48.638;8.896;2022-12-29T04:00:30;2.47;;;1.80;;
13329;SDS011;6734;48.638;8.896;2022-12-29T04:02:56;3.73;;;1.27;;
13329;SDS011;6734;48.638;8.896;2022-12-29T04:05:22;2.17;;;1.13;;
13329;SDS011;6734;48.638;8.896;2022-12-29T04:07:48;2.50;;;1.30;;
13329;SDS011;6734;48.638;8.896;2022-12-29T04:10:15;1.40;;;1.20;;
13329;SDS011;6734;48.638;8.896;2022-12-29T04:12:40;1.63;;;1.43;;
13329;SDS011;6734;48.638;8.896;2022-12-29T04:15:07;4.30;;;1.40;;
13329;SDS011;6734;48.638;8.896;2022-12-29T04:17:33;4.90;;;1.50;;
13329;SDS011;6734;48.638;8.896;2022-12-29T04:19:59;2.27;;;1.40;;
13329;SDS011;6734;48.638;8.896;2022-12-29T04:22:44;2.20;;;1.17;;
13329;SDS011;6734;48.638;8.896;2022-12-29T04:25:09;3.90;;;1.37;;
13329;SDS011;6734;48.638;8.896;2022-12-29T04:27:35;1.30;;;1.10;;
13329;SDS011;6734;48.638;8.896;2022-12-29T04:30:02;3.53;;;1.50;;
13329;SDS011;6734;48.638;8.896;2022-12-29T04:32:28;2.17;;;1.57;;
13329;SDS011;6734;48.638;8.896;2022-12-29T04:34:54;3.37;;;1.60;;
13329;SDS011;6734;48.638;8.896;2022-12-29T04:37:19;1.90;;;1.47;;
13329;SDS011;6734;48.638;8.896;2022-12-29T04:39:45;4.03;;;1.47;;
13329;SDS011;6734;48.638;8.896;2022-12-29T04:42:11;1.50;;;1.17;;
13329;SDS011;6734;48.638;8.896;2022-12-29T04:44:36;1.10;;;1.00;;
13329;SDS011;6734;48.638;8.896;2022-12-29T04:47:02;2.23;;;1.30;;
13329;SDS011;6734;48.638;8.896;2022-12-29T04:49:28;2.13;;;1.40;;
13329;SDS011;6734;48.638;8.896;2022-12-29T04:51:54;2.53;;;1.30;;
13329;SDS011;6734;48.638;8.896;2022-12-29T04:54:20;2.97;;;1.37;;
13329;SDS011;6734;48.638;8.896;2022-12-29T04:56:46;1.67;;;1.23;;
13329;SDS011;6734;48.638;8.896;2022-12-29T04:59:11;3.40;;;1.30;;
13329;SDS011;6734;48.638;8.896;2022-12-29T05:01:37;3.37;;;1.60;;
13329;SDS011;6734;48.638;8.896;2022-12-29T05:04:03;2.93;;;1.93;;
13329;SDS011;6734;48.638;8.896;2022-12-29T05:06:29;4.10;;;1.20;;
13329;SDS011;6734;48.638;8.896;2022-12-29T05:08:54;2.10;;;0.97;;
13329;SDS011;6734;48.638;8.896;2022-12-29T05:11:20;3.57;;;1.50;;
13329;SDS011;6734;48.638;8.896;2022-12-29T05:13:46;2.10;;;1.27;;
13329;SDS011;6734;48.638;8.896;2022-12-29T05:16:12;2.37;;;1.40;;
13329;SDS011;6734;48.638;8.896;2022-12-29T05:18:38;4.73;;;1.80;;
13329;SDS011;6734;48.638;8.896;2022-12-29T05:21:04;2.17;;;1.57;;
13329;SDS011;6734;48.638;8.896;2022-12-29T05:23:29;2.53;;;1.40;;
13329;SDS011;6734;48.638;8.896;2022-12-29T05:25:55;2.90;;;1.50;;
13329;SDS011;6734;48.638;8.896;2022-12-29T05:28:21;2.80;;;1.80;;
13329;SDS011;6734;48.638;8.896;2022-12-29T05:30:50;1.53;;;1.20;;
13329;SDS011;6734;48.638;8.896;2022-12-29T05:33:17;1.80;;;1.20;;
13329;SDS011;6734;48.638;8.896;2022-12-29T05:35:43;1.43;;;1.33;;
13329;SDS011;6734;48.638;8.896;2022-12-29T05:38:09;2.70;;;1.40;;
13329;SDS011;6734;48.638;8.896;2022-12-29T05:40:35;2.33;;;1.40;;
13329;SDS011;6734;48.638;8.896;2022-12-29T05:43:01;3.83;;;1.70;;
13329;SDS011;6734;48.638;8.896;2022-12-29T05:45:26;1.70;;;1.27;;
13329;SDS011;6734;48.638;8.896;2022-12-29T05:47:52;2.67;;;1.60;;
13329;SDS011;6734;48.638;8.896;2022-12-29T05:50:18;3.40;;;1.20;;
13329;SDS011;6734;48.638;8.896;2022-12-29T05:52:44;2.77;;;1.87;;
13329;SDS011;6734;48.638;8.896;2022-12-29T05:55:09;2.00;;;1.30;;
13329;SDS011;6734;48.638;8.896;2022-12-29T05:57:35;2.00;;;1.50;;
13329;SDS011;6734;48.638;8.896;2022-12-29T06:00:02;1.87;;;1.60;;
13329;SDS011;6734;48.638;8.896;2022-12-29T06:02:29;2.63;;;1.40;;
13329;SDS011;6734;48.638;8.896;2022-12-29T06:04:54;2.13;;;1.50;;
13329;SDS011;6734;48.638;8.896;2022-12-29T06:07:20;1.60;;;1.20;;
13329;SDS011;6734;48.638;8.896;2022-12-29T06:09:46;1.93;;;1.50;;
13329;SDS011;6734;48.638;8.896;2022-12-29T06:12:11;2.07;;;1.50;;
13329;SDS011;6734;48.638;8.896;2022-12-29T06:14:37;3.80;;;1.77;;
13329;SDS011;6734;48.638;8.896;2022-12-29T06:17:03;2.80;;;1.73;;
13329;SDS011;6734;48.638;8.896;2022-12-29T06:19:29;2.83;;;1.80;;
13329;SDS011;6734;48.638;8.896;2022-12-29T06:21:55;1.50;;;1.20;;
13329;SDS011;6734;48.638;8.896;2022-12-29T06:24:21;1.63;;;1.37;;
13329;SDS011;6734;48.638;8.896;2022-12-29T06:26:47;2.27;;;1.63;;
13329;SDS011;6734;48.638;8.896;2022-12-29T06:29:13;3.30;;;1.30;;
13329;SDS011;6734;48.638;8.896;2022-12-29T06:31:43;1.37;;;1.20;;
13329;SDS011;6734;48.638;8.896;2022-12-29T06:34:10;2.60;;;1.43;;
13329;SDS011;6734;48.638;8.896;2022-12-29T06:36:37;2.37;;;1.30;;
13329;SDS011;6734;48.638;8.896;2022-12-29T06:39:03;2.80;;;1.80;;
13329;SDS011;6734;48.638;8.896;2022-12-29T06:41:29;4.43;;;1.60;;
13329;SDS011;6734;48.638;8.896;2022-12-29T06:43:55;2.73;;;1.50;;
13329;SDS011;6734;48.638;8.896;2022-12-29T06:46:21;3.13;;;1.90;;
13329;SDS011;6734;48.638;8.896;2022-12-29T06:48:46;2.07;;;1.50;;
13329;SDS011;6734;48.638;8.896;2022-12-29T06:51:12;2.53;;;1.47;;
13329;SDS011;6734;48.638;8.896;2022-12-29T06:53:37;3.33;;;1.43;;
13329;SDS011;6734;48.638;8.896;2022-12-29T06:56:03;2.03;;;1.60;;
13329;SDS011;6734;48.638;8.896;2022-12-29T06:58:29;3.03;;;1.90;;
13329;SDS011;6734;48.638;8.896;2022-12-29T07:00:55;1.83;;;1.60;;
13329;SDS011;6734;48.638;8.896;2022-12-29T07:03:21;5.23;;;2.60;;
13329;SDS011;6734;48.638;8.896;2022-12-29T07:05:46;3.90;;;2.47;;
13329;SDS011;6734;48.638;8.896;2022-12-29T07:08:12;4.13;;;2.00;;
13329;SDS011;6734;48.638;8.896;2022-12-29T07:10:39;3.83;;;1.90;;
13329;SDS011;6734;48.638;8.896;2022-12-29T07:13:04;3.50;;;1.63;;
13329;SDS011;6734;48.638;8.896;2022-12-29T07:15:32;2.43;;;1.57;;
13329;SDS011;6734;48.638;8.896;2022-12-29T07:17:57;2.00;;;1.40;;
13329;SDS011;6734;48.638;8.896;2022-12-29T07:20:23;3.27;;;1.83;;
13329;SDS011;6734;48.638;8.896;2022-12-29T07:22:48;2.73;;;1.73;;
13329;SDS011;6734;48.638;8.896;2022-12-29T07:25:14;1.83;;;1.50;;
13329;SDS011;6734;48.638;8.896;2022-12-29T07:27:39;3.47;;;1.60;;
13329;SDS011;6734;48.638;8.896;2022-12-29T07:30:05;1.83;;;1.60;;
13329;SDS011;6734;48.638;8.896;2022-12-29T07:32:34;3.87;;;1.93;;
13329;SDS011;6734;48.638;8.896;2022-12-29T07:35:00;2.70;;;1.80;;
13329;SDS011;6734;48.638;8.896;2022-12-29T07:37:26;2.47;;;1.73;;
13329;SDS011;6734;48.638;8.896;2022-12-29T07:39:51;2.33;;;1.70;;
13329;SDS011;6734;48.638;8.896;2022-12-29T07:42:17;2.90;;;1.80;;
13329;SDS011;6734;48.638;8.896;2022-12-29T07:44:43;1.90;;;1.70;;
13329;SDS011;6734;48.638;8.896;2022-12-29T07:47:09;2.30;;;1.90;;
13329;SDS011;6734;48.638;8.896;2022-12-29T07:49:35;2.73;;;1.73;;
13329;SDS011;6734;48.638;8.896;2022-12-29T07:52:01;3.23;;;1.90;;
13329;SDS011;6734;48.638;8.896;2022-12-29T07:54:27;3.37;;;1.60;;
13329;SDS011;6734;48.638;8.896;2022-12-29T07:56:53;3.97;;;1.53;;
13329;SDS011;6734;48.638;8.896;2022-12-29T07:59:19;2.83;;;1.47;;
13329;SDS011;6734;48.638;8.896;2022-12-29T08:01:45;3.20;;;1.70;;
13329;SDS011;6734;48.638;8.896;2022-12-29T08:04:10;2.10;;;1.43;;
13329;SDS011;6734;48.638;8.896;2022-12-29T08:06:36;2.53;;;1.60;;
13329;SDS011;6734;48.638;8.896;2022-12-29T08:09:02;2.03;;;1.30;;
13329;SDS011;6734;48.638;8.896;2022-12-29T08:11:28;1.63;;;1.50;;
13329;SDS011;6734;48.638;8.896;2022-12-29T08:13:54;2.77;;;1.57;;
13329;SDS011;6734;48.638;8.896;2022-12-29T08:16:20;2.80;;;1.40;;
13329;SDS011;6734;48.638;8.896;2022-12-29T08:18:46;2.87;;;1.30;;
13329;SDS011;6734;48.638;8.896;2022-12-29T08:21:12;4.17;;;1.97;;
13329;SDS011;6734;48.638;8.896;2022-12-29T08:23:38;3.07;;;1.70;;
13329;SDS011;6734;48.638;8.896;2022-12-29T08:26:04;4.40;;;1.83;;
13329;SDS011;6734;48.638;8.896;2022-12-29T08:28:31;3.83;;;1.90;;
13329;SDS011;6734;48.638;8.896;2022-12-29T08:30:58;2.90;;;1.70;;
13329;SDS011;6734;48.638;8.896;2022-12-29T08:33:27;1.87;;;1.43;;
13329;SDS011;6734;48.638;8.896;2022-12-29T08:35:58;3.03;;;1.87;;
13329;SDS011;6734;48.638;8.896;2022-12-29T08:38:28;4.10;;;2.07;;
13329;SDS011;6734;48.638;8.896;2022-12-29T08:40:54;4.53;;;1.27;;
13329;SDS011;6734;48.638;8.896;2022-12-29T08:43:20;1.77;;;1.10;;
13329;SDS011;6734;48.638;8.896;2022-12-29T08:45:46;1.80;;;1.20;;
13329;SDS011;6734;48.638;8.896;2022-12-29T08:48:12;2.83;;;1.50;;
13329;SDS011;6734;48.638;8.896;2022-12-29T08:50:37;3.17;;;1.37;;
13329;SDS011;6734;48.638;8.896;2022-12-29T08:53:03;2.87;;;1.70;;
13329;SDS011;6734;48.638;8.896;2022-12-29T08:55:29;1.80;;;1.13;;
13329;SDS011;6734;48.638;8.896;2022-12-29T08:57:55;1.83;;;1.50;;
13329;SDS011;6734;48.638;8.896;2022-12-29T09:00:21;2.70;;;1.30;;
13329;SDS011;6734;48.638;8.896;2022-12-29T09:02:47;1.73;;;1.20;;
13329;SDS011;6734;48.638;8.896;2022-12-29T09:05:12;2.70;;;1.30;;
13329;SDS011;6734;48.638;8.896;2022-12-29T09:07:38;2.13;;;1.70;;
13329;SDS011;6734;48.638;8.896;2022-12-29T09:10:04;2.63;;;1.77;;
13329;SDS011;6734;48.638;8.896;2022-12-29T09:12:31;3.40;;;3.10;;
13329;SDS011;6734;48.638;8.896;2022-12-29T09:14:56;2.50;;;1.20;;
13329;SDS011;6734;48.638;8.896;2022-12-29T09:17:22;3.20;;;1.47;;
13329;SDS011;6734;48.638;8.896;2022-12-29T09:20:06;2.77;;;0.97;;
13329;SDS011;6734;48.638;8.896;2022-12-29T09:22:33;2.03;;;1.20;;
13329;SDS011;6734;48.638;8.896;2022-12-29T09:24:59;3.30;;;1.47;;
13329;SDS011;6734;48.638;8.896;2022-12-29T09:27:25;1.90;;;1.00;;
13329;SDS011;6734;48.638;8.896;2022-12-29T09:29:51;4.50;;;1.50;;
13329;SDS011;6734;48.638;8.896;2022-12-29T09:32:17;1.70;;;1.30;;
13329;SDS011;6734;48.638;8.896;2022-12-29T09:34:42;1.97;;;1.23;;
13329;SDS011;6734;48.638;8.896;2022-12-29T09:37:08;2.93;;;1.60;;
13329;SDS011;6734;48.638;8.896;2022-12-29T09:39:34;2.67;;;1.37;;
13329;SDS011;6734;48.638;8.896;2022-12-29T09:42:19;2.43;;;1.40;;
13329;SDS011;6734;48.638;8.896;2022-12-29T09:45:13;1.77;;;1.40;;
13329;SDS011;6734;48.638;8.896;2022-12-29T09:47:42;2.30;;;1.20;;
13329;SDS011;6734;48.638;8.896;2022-12-29T09:52:40;2.70;;;1.50;;
13329;SDS011;6734;48.638;8.896;2022-12-29T09:55:13;4.10;;;1.60;;
13329;SDS011;6734;48.638;8.896;2022-12-29T09:57:46;2.63;;;1.50;;
13329;SDS011;6734;48.638;8.896;2022-12-29T10:00:36;3.63;;;1.43;;
13329;SDS011;6734;48.638;8.896;2022-12-29T10:03:05;4.20;;;1.53;;
13329;SDS011;6734;48.638;8.896;2022-12-29T10:05:39;2.40;;;1.50;;
13329;SDS011;6734;48.638;8.896;2022-12-29T10:11:34;3.67;;;1.80;;
13329;SDS011;6734;48.638;8.896;2022-12-29T10:16:54;3.07;;;1.67;;
13329;SDS011;6734;48.638;8.896;2022-12-29T10:24:31;3.37;;;1.77;;
13329;SDS011;6734;48.638;8.896;2022-12-29T10:26:59;3.83;;;1.40;;
13329;SDS011;6734;48.638;8.896;2022-12-29T10:29:28;3.23;;;1.50;;
13329;SDS011;6734;48.638;8.896;2022-12-29T10:31:59;2.67;;;1.60;;
13329;SDS011;6734;48.638;8.896;2022-12-29T10:34:34;2.10;;;1.40;;
13329;SDS011;6734;48.638;8.896;2022-12-29T10:37:08;2.83;;;1.67;;
13329;SDS011;6734;48.638;8.896;2022-12-29T10:39:55;2.57;;;1.33;;
13329;SDS011;6734;48.638;8.896;2022-12-29T10:42:25;2.23;;;1.30;;
13329;SDS011;6734;48.638;8.896;2022-12-29T10:45:01;4.00;;;1.70;;
13329;SDS011;6734;48.638;8.896;2022-12-29T10:47:28;1.70;;;1.23;;
13329;SDS011;6734;48.638;8.896;2022-12-29T10:49:58;2.67;;;1.23;;
13329;SDS011;6734;48.638;8.896;2022-12-29T10:52:26;3.70;;;1.53;;
13329;SDS011;6734;48.638;8.896;2022-12-29T10:55:00;2.63;;;1.43;;
13329;SDS011;6734;48.638;8.896;2022-12-29T10:57:32;1.97;;;1.13;;
13329;SDS011;6734;48.638;8.896;2022-12-29T10:59:58;2.17;;;1.70;;
13329;SDS011;6734;48.638;8.896;2022-12-29T11:07:35;2.60;;;1.33;;
13329;SDS011;6734;48.638;8.896;2022-12-29T11:10:17;3.07;;;1.73;;
13329;SDS011;6734;48.638;8.896;2022-12-29T11:13:02;4.30;;;1.70;;
13329;SDS011;6734;48.638;8.896;2022-12-29T11:15:38;1.63;;;0.97;;
13329;SDS011;6734;48.638;8.896;2022-12-29T11:18:07;2.93;;;1.80;;
13329;SDS011;6734;48.638;8.896;2022-12-29T11:20:57;1.47;;;1.30;;
13329;SDS011;6734;48.638;8.896;2022-12-29T11:28:37;2.17;;;1.37;;
13329;SDS011;6734;48.638;8.896;2022-12-29T11:31:04;1.40;;;1.10;;
13329;SDS011;6734;48.638;8.896;2022-12-29T11:33:32;3.53;;;1.43;;
13329;SDS011;6734;48.638;8.896;2022-12-29T11:36:06;2.53;;;1.50;;
13329;SDS011;6734;48.638;8.896;2022-12-29T11:38:34;2.50;;;1.50;;
13329;SDS011;6734;48.638;8.896;2022-12-29T11:41:01;1.43;;;1.10;;
13329;SDS011;6734;48.638;8.896;2022-12-29T11:45:58;1.00;;;0.90;;
13329;SDS011;6734;48.638;8.896;2022-12-29T11:48:25;3.20;;;1.30;;
13329;SDS011;6734;48.638;8.896;2022-12-29T11:50:55;2.03;;;1.20;;
13329;SDS011;6734;48.638;8.896;2022-12-29T11:53:25;2.33;;;1.53;;
13329;SDS011;6734;48.638;8.896;2022-12-29T11:56:08;1.67;;;1.27;;
13329;SDS011;6734;48.638;8.896;2022-12-29T11:58:36;2.70;;;1.30;;
13329;SDS011;6734;48.638;8.896;2022-12-29T12:03:29;2.10;;;1.67;;
13329;SDS011;6734;48.638;8.896;2022-12-29T12:05:58;2.80;;;1.60;;
13329;SDS011;6734;48.638;8.896;2022-12-29T12:11:35;2.23;;;1.63;;
13329;SDS011;6734;48.638;8.896;2022-12-29T12:14:20;3.70;;;1.70;;
13329;SDS011;6734;48.638;8.896;2022-12-29T12:16:59;3.03;;;2.17;;
13329;SDS011;6734;48.638;8.896;2022-12-29T12:24:57;5.43;;;2.07;;
13329;SDS011;6734;48.638;8.896;2022-12-29T12:27:28;3.37;;;1.93;;
13329;SDS011;6734;48.638;8.896;2022-12-29T12:30:09;3.20;;;1.60;;
13329;SDS011;6734;48.638;8.896;2022-12-29T12:38:00;5.83;;;3.17;;
13329;SDS011;6734;48.638;8.896;2022-12-29T12:40:43;4.97;;;3.03;;
13329;SDS011;6734;48.638;8.896;2022-12-29T12:46:18;4.47;;;2.73;;
13329;SDS011;6734;48.638;8.896;2022-12-29T12:48:59;3.30;;;2.30;;
13329;SDS011;6734;48.638;8.896;2022-12-29T12:59:25;2.20;;;1.97;;
13329;SDS011;6734;48.638;8.896;2022-12-29T13:15:13;4.70;;;2.07;;
13329;SDS011;6734;48.638;8.896;2022-12-29T13:25:41;2.10;;;1.60;;
13329;SDS011;6734;48.638;8.896;2022-12-29T13:31:12;1.87;;;1.70;;
13329;SDS011;6734;48.638;8.896;2022-12-29T13:39:15;4.13;;;2.07;;
13329;SDS011;6734;48.638;8.896;2022-12-29T13:41:43;3.63;;;2.40;;
13329;SDS011;6734;48.638;8.896;2022-12-29T13:44:22;3.50;;;1.87;;
13329;SDS011;6734;48.638;8.896;2022-12-29T13:46:49;3.23;;;2.23;;
13329;SDS011;6734;48.638;8.896;2022-12-29T13:49:20;6.50;;;2.87;;
13329;SDS011;6734;48.638;8.896;2022-12-29T13:51:54;4.00;;;2.93;;
13329;SDS011;6734;48.638;8.896;2022-12-29T13:54:37;3.50;;;2.43;;
13329;SDS011;6734;48.638;8.896;2022-12-29T13:59:55;4.70;;;1.80;;
13329;SDS011;6734;48.638;8.896;2022-12-29T14:07:48;4.17;;;2.23;;
13329;SDS011;6734;48.638;8.896;2022-12-29T14:12:50;4.87;;;1.60;;
13329;SDS011;6734;48.638;8.896;2022-12-29T14:15:21;2.53;;;1.60;;
13329;SDS011;6734;48.638;8.896;2022-12-29T14:18:02;2.73;;;1.83;;
13329;SDS011;6734;48.638;8.896;2022-12-29T14:20:29;5.57;;;2.87;;
13329;SDS011;6734;48.638;8.896;2022-12-29T14:22:56;3.70;;;2.40;;
13329;SDS011;6734;48.638;8.896;2022-12-29T14:28:27;3.73;;;2.23;;
13329;SDS011;6734;48.638;8.896;2022-12-29T14:30:55;2.80;;;2.07;;
13329;SDS011;6734;48.638;8.896;2022-12-29T14:33:22;2.90;;;2.20;;
13329;SDS011;6734;48.638;8.896;2022-12-29T14:35:51;3.00;;;2.10;;
13329;SDS011;6734;48.638;8.896;2022-12-29T14:38:24;4.50;;;2.23;;
13329;SDS011;6734;48.638;8.896;2022-12-29T14:40:51;2.57;;;2.00;;
13329;SDS011;6734;48.638;8.896;2022-12-29T14:43:24;3.60;;;2.37;;
13329;SDS011;6734;48.638;8.896;2022-12-29T14:45:53;2.40;;;2.17;;
13329;SDS011;6734;48.638;8.896;2022-12-29T14:48:26;2.83;;;1.97;;
13329;SDS011;6734;48.638;8.896;2022-12-29T14:50:53;3.17;;;1.80;;
13329;SDS011;6734;48.638;8.896;2022-12-29T14:56:03;2.47;;;2.10;;
13329;SDS011;6734;48.638;8.896;2022-12-29T14:58:31;2.70;;;1.60;;
13329;SDS011;6734;48.638;8.896;2022-12-29T15:01:13;2.93;;;1.90;;
13329;SDS011;6734;48.638;8.896;2022-12-29T15:03:46;4.03;;;2.20;;
13329;SDS011;6734;48.638;8.896;2022-12-29T15:06:17;3.20;;;1.90;;
13329;SDS011;6734;48.638;8.896;2022-12-29T15:08:54;3.93;;;2.33;;
13329;SDS011;6734;48.638;8.896;2022-12-29T15:17:32;3.93;;;2.03;;
13329;SDS011;6734;48.638;8.896;2022-12-29T15:20:00;3.57;;;1.83;;
13329;SDS011;6734;48.638;8.896;2022-12-29T15:22:50;2.50;;;2.20;;
13329;SDS011;6734;48.638;8.896;2022-12-29T15:25:17;3.70;;;2.53;;
13329;SDS011;6734;48.638;8.896;2022-12-29T15:27:48;3.00;;;2.10;;
13329;SDS011;6734;48.638;8.896;2022-12-29T15:30:14;4.60;;;2.40;;
13329;SDS011;6734;48.638;8.896;2022-12-29T15:32:42;4.13;;;2.00;;
13329;SDS011;6734;48.638;8.896;2022-12-29T15:37:55;2.37;;;1.90;;
13329;SDS011;6734;48.638;8.896;2022-12-29T15:40:25;2.50;;;1.60;;
13329;SDS011;6734;48.638;8.896;2022-12-29T15:45:29;4.03;;;2.17;;
13329;SDS011;6734;48.638;8.896;2022-12-29T15:47:57;6.47;;;3.60;;
13329;SDS011;6734;48.638;8.896;2022-12-29T15:50:31;5.67;;;2.97;;
13329;SDS011;6734;48.638;8.896;2022-12-29T15:52:59;3.63;;;2.40;;
13329;SDS011;6734;48.638;8.896;2022-12-29T15:55:32;2.47;;;2.03;;
13329;SDS011;6734;48.638;8.896;2022-12-29T15:58:01;3.97;;;2.37;;
13329;SDS011;6734;48.638;8.896;2022-12-29T16:00:30;5.27;;;2.80;;
13329;SDS011;6734;48.638;8.896;2022-12-29T16:02:58;5.33;;;2.73;;
13329;SDS011;6734;48.638;8.896;2022-12-29T16:05:30;3.57;;;2.60;;
13329;SDS011;6734;48.638;8.896;2022-12-29T16:07:58;4.20;;;2.30;;
13329;SDS011;6734;48.638;8.896;2022-12-29T16:10:26;5.30;;;2.30;;
13329;SDS011;6734;48.638;8.896;2022-12-29T16:13:00;3.87;;;2.43;;
13329;SDS011;6734;48.638;8.896;2022-12-29T16:15:27;3.67;;;2.30;;
13329;SDS011;6734;48.638;8.896;2022-12-29T16:17:53;3.73;;;2.17;;
13329;SDS011;6734;48.638;8.896;2022-12-29T16:20:24;3.77;;;2.83;;
13329;SDS011;6734;48.638;8.896;2022-12-29T16:22:59;4.43;;;2.90;;
13329;SDS011;6734;48.638;8.896;2022-12-29T16:25:27;3.93;;;2.50;;
13329;SDS011;6734;48.638;8.896;2022-12-29T16:27:56;4.60;;;3.37;;
13329;SDS011;6734;48.638;8.896;2022-12-29T16:30:23;4.37;;;3.30;;
13329;SDS011;6734;48.638;8.896;2022-12-29T16:32:51;7.47;;;6.10;;
13329;SDS011;6734;48.638;8.896;2022-12-29T16:35:18;6.80;;;4.87;;
13329;SDS011;6734;48.638;8.896;2022-12-29T16:37:46;5.63;;;4.50;;
13329;SDS011;6734;48.638;8.896;2022-12-29T16:42:54;5.37;;;3.80;;
13329;SDS011;6734;48.638;8.896;2022-12-29T16:50:39;8.70;;;5.57;;
13329;SDS011;6734;48.638;8.896;2022-12-29T16:55:54;12.47;;;7.50;;
13329;SDS011;6734;48.638;8.896;2022-12-29T16:58:22;9.73;;;6.97;;
13329;SDS011;6734;48.638;8.896;2022-12-29T17:01:00;8.90;;;6.00;;
13329;SDS011;6734;48.638;8.896;2022-12-29T17:03:31;8.40;;;6.47;;
13329;SDS011;6734;48.638;8.896;2022-12-29T17:05:58;9.20;;;6.97;;
13329;SDS011;6734;48.638;8.896;2022-12-29T17:08:24;9.40;;;6.20;;
13329;SDS011;6734;48.638;8.896;2022-12-29T17:10:50;8.20;;;6.03;;
13329;SDS011;6734;48.638;8.896;2022-12-29T17:13:37;11.83;;;8.83;;
13329;SDS011;6734;48.638;8.896;2022-12-29T17:16:03;18.83;;;10.90;;
13329;SDS011;6734;48.638;8.896;2022-12-29T17:18:30;10.97;;;8.00;;
13329;SDS011;6734;48.638;8.896;2022-12-29T17:20:56;11.80;;;7.77;;
13329;SDS011;6734;48.638;8.896;2022-12-29T17:23:21;11.33;;;7.50;;
13329;SDS011;6734;48.638;8.896;2022-12-29T17:25:47;6.47;;;5.73;;
13329;SDS011;6734;48.638;8.896;2022-12-29T17:28:18;5.03;;;4.00;;
13329;SDS011;6734;48.638;8.896;2022-12-29T17:30:45;5.70;;;4.83;;
13329;SDS011;6734;48.638;8.896;2022-12-29T17:33:12;7.30;;;4.67;;
13329;SDS011;6734;48.638;8.896;2022-12-29T17:35:39;6.37;;;4.40;;
13329;SDS011;6734;48.638;8.896;2022-12-29T17:38:19;10.23;;;6.60;;
13329;SDS011;6734;48.638;8.896;2022-12-29T17:40:55;9.67;;;5.80;;
13329;SDS011;6734;48.638;8.896;2022-12-29T17:43:21;7.53;;;5.47;;
13329;SDS011;6734;48.638;8.896;2022-12-29T17:45:54;13.20;;;9.57;;
13329;SDS011;6734;48.638;8.896;2022-12-29T17:48:22;9.63;;;7.73;;
13329;SDS011;6734;48.638;8.896;2022-12-29T17:50:48;10.27;;;7.57;;
13329;SDS011;6734;48.638;8.896;2022-12-29T17:53:19;9.90;;;6.50;;